NCAR-RAP Real-Time Weather Data

Output produced by METARs form (26 May 2022  08:25 UTC)
found at http://weather.rap.ucar.edu/surface/
 
KRNO 260755Z 00000KT 10SM CLR 22/06 A3000 RMK AO2 SLP095 T02170056 403330122
KRNO 260655Z 00000KT 10SM FEW250 23/06 A3000 RMK AO2 SLP097 T02280056
KRNO 260555Z 23004KT 10SM SCT250 24/05 A3000 RMK AO2 SLP099 T02390050 10328 20239 51015
KRNO 260455Z 28010KT 10SM SCT180 BKN250 25/05 A2998 RMK AO2 SLP098 T02500050
KRNO 260355Z 29014KT 10SM FEW100 SCT180 BKN250 26/04 A2996 RMK AO2 SLP091 T02610044
KRNO 260255Z 29014KT 10SM FEW100 SCT180 BKN250 28/04 A2995 RMK AO2 SLP087 T02780044 53005
KRNO 260155Z 28015G23KT 10SM FEW100 BKN250 29/03 A2993 RMK AO2 SLP082 TCU DSNT E THRU SE T02940033
KRNO 260055Z 28014KT 10SM FEW100 BKN250 32/01 A2993 RMK AO2 SLP082 TCU DSNT SE T03170011
KRNO 252355Z 28015G23KT 10SM FEW100 BKN250 33/M01 A2993 RMK AO2 SLP078 TCU DSNT SE T03281011 10333 20250 56016
KRNO 252255Z 30010G18KT 10SM FEW100 BKN250 33/M02 A2993 RMK AO2 SLP079 T03281017
KRNO 252155Z 33006KT 10SM FEW100 BKN250 32/01 A2996 RMK AO2 SLP086 T03220006
KRNO 252055Z VRB03KT 10SM FEW100 BKN250 31/00 A2998 RMK AO2 SLP095 T03110000 58022
KRNO 251955Z VRB03KT 10SM FEW090 SCT250 30/M01 A3001 RMK AO2 SLP108 T03001006
KRNO 251855Z 17004KT 10SM FEW250 28/M01 A3004 RMK AO2 SLP116 T02781006
KRNO 251755Z 03003KT 10SM FEW250 25/01 A3006 RMK AO2 SLP124 T02500006 10256 20122 58010
KRNO 251655Z 13003KT 10SM FEW250 22/02 A3008 RMK AO2 SLP133 T02170022
KRNO 251555Z 00000KT 10SM FEW250 19/02 A3009 RMK AO2 SLP137 T01890022
KRNO 251455Z 00000KT 10SM FEW250 17/02 A3009 RMK AO2 SLP140 T01670022 50004
KRNO 251355Z 00000KT 10SM FEW250 15/02 A3009 RMK AO2 SLP140 T01500022
KRNO 251255Z 29004KT 10SM FEW200 13/02 A3008 RMK AO2 SLP138 T01280017
KRNO 251155Z 26003KT 10SM FEW250 13/02 A3007 RMK AO2 SLP134 T01330017 10200 20133 51002
KRNO 251055Z 29005KT 10SM CLR 14/01 A3007 RMK AO2 SLP131 T01440011
KRNO 250955Z 00000KT 10SM CLR 15/01 A3008 RMK AO2 SLP136 T01500011
KRNO 250855Z 00000KT 10SM CLR 16/01 A3007 RMK AO2 SLP132 T01610006 50002
KRNO 250755Z 20004KT 10SM CLR 17/M01 A3007 RMK AO2 SLP131 T01671006 402940100
KRNO 250655Z 29005KT 10SM CLR 19/00 A3006 RMK AO2 SLP130 T01890000
KRNO 250555Z 17005KT 10SM CLR 20/00 A3006 RMK AO2 SLP131 T02000000 10294 20200 51014
KRNO 250455Z 26006KT 10SM CLR 22/M01 A3005 RMK AO2 SLP127 T02221006
KRNO 250355Z 34007KT 10SM FEW250 24/M03 A3003 RMK AO2 SLP121 T02391028
KRNO 250255Z 02007KT 10SM BKN250 26/M03 A3002 RMK AO2 SLP115 T02561033 53003
KRNO 250155Z 02009KT 10SM BKN250 27/M03 A3001 RMK AO2 SLP113 T02671033
KRNO 250055Z 36009G16KT 10SM BKN250 28/M03 A3000 RMK AO2 SLP114 T02781028
KRNO 242355Z 36008KT 10SM BKN250 28/M03 A3000 RMK AO2 SLP113 T02831028 10294 20211 56011
KRNO 242255Z VRB03KT 10SM SCT250 28/M02 A3001 RMK AO2 SLP114 T02831022
KRNO 242155Z 11008KT 10SM SCT250 27/M03 A3003 RMK AO2 SLP118 T02721033
KRNO 242055Z VRB06KT 10SM FEW250 26/M04 A3004 RMK AO2 SLP124 T02611039 58010
KRNO 241955Z 33007KT 300V360 10SM FEW250 26/M06 A3006 RMK AO2 SLP129 T02611056
KRNO 241855Z 03004KT 10SM FEW250 23/M01 A3006 RMK AO2 SLP133 T02281011
KRNO 241755Z 00000KT 10SM FEW250 21/M01 A3007 RMK AO2 SLP137 T02061006 10222 20100 58005
KRNO 241655Z 35004KT 10SM FEW250 19/00 A3008 RMK AO2 SLP141 T01940000
KRNO 241555Z 00000KT 10SM CLR 17/00 A3009 RMK AO2 SLP146 T01670000
KRNO 241455Z 00000KT 10SM CLR 15/M01 A3009 RMK AO2 SLP145 T01501006 53006
KRNO 241355Z 30003KT 10SM FEW220 13/M01 A3009 RMK AO2 SLP144 T01281006
KRNO 241255Z 00000KT 10SM FEW200 11/M01 A3007 RMK AO2 SLP141 T01061011
KRNO 241155Z 00000KT 10SM CLR 12/M02 A3007 RMK AO2 SLP139 T01171017 10189 20106 52002
KRNO 241055Z 21004KT 10SM CLR 11/M02 A3007 RMK AO2 SLP140 T01111022
KRNO 240955Z 33006KT 10SM CLR 15/M03 A3007 RMK AO2 SLP134 T01501028
KRNO 240855Z 00000KT 10SM CLR 14/M03 A3007 RMK AO2 SLP136 T01441033 50005